sensor_id;sensor_type;location;lat;lon;timestamp;P1;durP1;ratioP1;P2;durP2;ratioP2
53401;SDS011;39295;45.534;20.034;2022-12-13T00:00:44;40.63;;;23.27;;
53401;SDS011;39295;45.534;20.034;2022-12-13T00:03:10;40.85;;;23.10;;
53401;SDS011;39295;45.534;20.034;2022-12-13T00:05:41;37.10;;;22.20;;
53401;SDS011;39295;45.534;20.034;2022-12-13T00:08:07;37.55;;;22.67;;
53401;SDS011;39295;45.534;20.034;2022-12-13T00:13:40;39.42;;;21.98;;
53401;SDS011;39295;45.534;20.034;2022-12-13T00:19:05;39.30;;;22.15;;
53401;SDS011;39295;45.534;20.034;2022-12-13T00:21:32;42.00;;;24.52;;
53401;SDS011;39295;45.534;20.034;2022-12-13T00:23:59;42.92;;;22.42;;
53401;SDS011;39295;45.534;20.034;2022-12-13T00:29:29;46.50;;;25.20;;
53401;SDS011;39295;45.534;20.034;2022-12-13T00:31:55;45.60;;;24.98;;
53401;SDS011;39295;45.534;20.034;2022-12-13T00:34:21;46.72;;;26.02;;
53401;SDS011;39295;45.534;20.034;2022-12-13T00:36:48;46.85;;;25.92;;
53401;SDS011;39295;45.534;20.034;2022-12-13T00:39:19;45.17;;;24.15;;
53401;SDS011;39295;45.534;20.034;2022-12-13T00:42:04;45.90;;;25.63;;
53401;SDS011;39295;45.534;20.034;2022-12-13T00:44:51;41.15;;;23.17;;
53401;SDS011;39295;45.534;20.034;2022-12-13T00:54:02;46.60;;;24.90;;
53401;SDS011;39295;45.534;20.034;2022-12-13T00:59:44;41.65;;;24.17;;
53401;SDS011;39295;45.534;20.034;2022-12-13T01:05:19;43.20;;;23.42;;
53401;SDS011;39295;45.534;20.034;2022-12-13T01:07:50;44.30;;;24.60;;
53401;SDS011;39295;45.534;20.034;2022-12-13T01:13:06;40.50;;;24.17;;
53401;SDS011;39295;45.534;20.034;2022-12-13T01:16:04;39.53;;;23.20;;
53401;SDS011;39295;45.534;20.034;2022-12-13T01:18:30;43.10;;;24.02;;
53401;SDS011;39295;45.534;20.034;2022-12-13T01:29:29;41.97;;;23.98;;
53401;SDS011;39295;45.534;20.034;2022-12-13T01:31:55;43.10;;;23.48;;
53401;SDS011;39295;45.534;20.034;2022-12-13T01:34:22;43.83;;;23.35;;
53401;SDS011;39295;45.534;20.034;2022-12-13T01:36:49;40.45;;;23.63;;
53401;SDS011;39295;45.534;20.034;2022-12-13T01:39:16;43.03;;;23.67;;
53401;SDS011;39295;45.534;20.034;2022-12-13T01:47:22;43.95;;;25.88;;
53401;SDS011;39295;45.534;20.034;2022-12-13T01:49:50;46.30;;;24.55;;
53401;SDS011;39295;45.534;20.034;2022-12-13T01:55:20;48.33;;;25.63;;
53401;SDS011;39295;45.534;20.034;2022-12-13T02:00:51;50.85;;;26.05;;
53401;SDS011;39295;45.534;20.034;2022-12-13T02:03:45;41.47;;;24.50;;
53401;SDS011;39295;45.534;20.034;2022-12-13T02:12:40;46.15;;;25.90;;
53401;SDS011;39295;45.534;20.034;2022-12-13T02:15:50;48.78;;;27.15;;
53401;SDS011;39295;45.534;20.034;2022-12-13T02:18:43;50.60;;;27.23;;
53401;SDS011;39295;45.534;20.034;2022-12-13T02:39:04;43.80;;;24.60;;
53401;SDS011;39295;45.534;20.034;2022-12-13T02:47:39;45.03;;;23.73;;
53401;SDS011;39295;45.534;20.034;2022-12-13T02:50:07;46.58;;;26.30;;
53401;SDS011;39295;45.534;20.034;2022-12-13T02:52:34;43.67;;;23.40;;
53401;SDS011;39295;45.534;20.034;2022-12-13T02:55:05;42.70;;;22.52;;
53401;SDS011;39295;45.534;20.034;2022-12-13T03:06:45;40.40;;;22.58;;
53401;SDS011;39295;45.534;20.034;2022-12-13T03:15:14;37.30;;;19.65;;
53401;SDS011;39295;45.534;20.034;2022-12-13T03:17:49;36.70;;;19.23;;
53401;SDS011;39295;45.534;20.034;2022-12-13T03:20:17;34.97;;;20.10;;
53401;SDS011;39295;45.534;20.034;2022-12-13T03:22:43;34.42;;;19.25;;
53401;SDS011;39295;45.534;20.034;2022-12-13T03:25:09;31.83;;;18.35;;
53401;SDS011;39295;45.534;20.034;2022-12-13T03:27:35;33.03;;;17.90;;
53401;SDS011;39295;45.534;20.034;2022-12-13T03:30:02;30.45;;;17.95;;
53401;SDS011;39295;45.534;20.034;2022-12-13T03:32:28;30.08;;;17.60;;
53401;SDS011;39295;45.534;20.034;2022-12-13T03:34:54;33.03;;;19.08;;
53401;SDS011;39295;45.534;20.034;2022-12-13T03:37:21;34.78;;;19.10;;
53401;SDS011;39295;45.534;20.034;2022-12-13T03:39:49;36.10;;;19.65;;
53401;SDS011;39295;45.534;20.034;2022-12-13T03:42:15;37.03;;;19.52;;
53401;SDS011;39295;45.534;20.034;2022-12-13T03:44:42;34.00;;;19.40;;
53401;SDS011;39295;45.534;20.034;2022-12-13T03:47:08;31.95;;;19.80;;
53401;SDS011;39295;45.534;20.034;2022-12-13T03:49:34;36.00;;;18.98;;
53401;SDS011;39295;45.534;20.034;2022-12-13T03:52:00;34.95;;;20.27;;
53401;SDS011;39295;45.534;20.034;2022-12-13T03:54:28;35.80;;;21.08;;
53401;SDS011;39295;45.534;20.034;2022-12-13T03:56:54;37.00;;;19.55;;
53401;SDS011;39295;45.534;20.034;2022-12-13T03:59:22;33.08;;;18.60;;
53401;SDS011;39295;45.534;20.034;2022-12-13T04:01:48;35.03;;;18.85;;
53401;SDS011;39295;45.534;20.034;2022-12-13T04:04:14;31.90;;;18.10;;
53401;SDS011;39295;45.534;20.034;2022-12-13T04:06:40;34.58;;;18.90;;
53401;SDS011;39295;45.534;20.034;2022-12-13T04:09:06;32.22;;;18.75;;
53401;SDS011;39295;45.534;20.034;2022-12-13T04:11:32;34.03;;;18.90;;
53401;SDS011;39295;45.534;20.034;2022-12-13T04:14:17;283.02;;;84.68;;
53401;SDS011;39295;45.534;20.034;2022-12-13T04:16:43;248.02;;;76.88;;
53401;SDS011;39295;45.534;20.034;2022-12-13T04:19:09;74.18;;;32.20;;
53401;SDS011;39295;45.534;20.034;2022-12-13T04:21:57;123.55;;;44.10;;
53401;SDS011;39295;45.534;20.034;2022-12-13T04:24:42;64.20;;;26.77;;
53401;SDS011;39295;45.534;20.034;2022-12-13T04:30:36;63.38;;;29.73;;
53401;SDS011;39295;45.534;20.034;2022-12-13T04:36:06;492.73;;;128.00;;
53401;SDS011;39295;45.534;20.034;2022-12-13T04:38:51;300.83;;;86.57;;
53401;SDS011;39295;45.534;20.034;2022-12-13T05:26:07;136.75;;;61.28;;
53401;SDS011;39295;45.534;20.034;2022-12-13T05:28:34;131.38;;;60.53;;
53401;SDS011;39295;45.534;20.034;2022-12-13T05:37:14;289.25;;;79.43;;
53401;SDS011;39295;45.534;20.034;2022-12-13T05:43:02;283.00;;;80.95;;
53401;SDS011;39295;45.534;20.034;2022-12-13T07:25:52;230.00;;;90.80;;
53401;SDS011;39295;45.534;20.034;2022-12-13T07:31:46;177.60;;;72.50;;
53401;SDS011;39295;45.534;20.034;2022-12-13T07:34:41;121.53;;;54.90;;
53401;SDS011;39295;45.534;20.034;2022-12-13T07:37:29;133.88;;;61.03;;
53401;SDS011;39295;45.534;20.034;2022-12-13T07:40:13;199.20;;;85.10;;
53401;SDS011;39295;45.534;20.034;2022-12-13T07:42:47;146.88;;;67.53;;
53401;SDS011;39295;45.534;20.034;2022-12-13T07:45:15;153.82;;;71.55;;
53401;SDS011;39295;45.534;20.034;2022-12-13T07:47:41;153.80;;;72.15;;
53401;SDS011;39295;45.534;20.034;2022-12-13T07:50:07;143.65;;;66.72;;
53401;SDS011;39295;45.534;20.034;2022-12-13T07:52:33;129.30;;;61.95;;
53401;SDS011;39295;45.534;20.034;2022-12-13T07:54:59;137.88;;;66.78;;
53401;SDS011;39295;45.534;20.034;2022-12-13T07:57:26;122.80;;;62.47;;
53401;SDS011;39295;45.534;20.034;2022-12-13T07:59:52;124.55;;;61.33;;
53401;SDS011;39295;45.534;20.034;2022-12-13T08:02:18;128.88;;;62.55;;
53401;SDS011;39295;45.534;20.034;2022-12-13T08:04:44;167.45;;;77.28;;
53401;SDS011;39295;45.534;20.034;2022-12-13T08:07:10;171.73;;;81.78;;
53401;SDS011;39295;45.534;20.034;2022-12-13T08:09:36;220.82;;;103.97;;
53401;SDS011;39295;45.534;20.034;2022-12-13T08:12:02;181.27;;;75.95;;
53401;SDS011;39295;45.534;20.034;2022-12-13T08:14:29;172.25;;;71.80;;
53401;SDS011;39295;45.534;20.034;2022-12-13T08:16:55;175.85;;;74.35;;
53401;SDS011;39295;45.534;20.034;2022-12-13T08:19:21;141.25;;;59.95;;
53401;SDS011;39295;45.534;20.034;2022-12-13T08:21:47;123.30;;;50.92;;
53401;SDS011;39295;45.534;20.034;2022-12-13T08:24:16;102.35;;;49.03;;
53401;SDS011;39295;45.534;20.034;2022-12-13T08:26:42;87.78;;;45.33;;
53401;SDS011;39295;45.534;20.034;2022-12-13T08:29:08;65.95;;;37.67;;
53401;SDS011;39295;45.534;20.034;2022-12-13T08:31:34;57.95;;;33.95;;
53401;SDS011;39295;45.534;20.034;2022-12-13T08:34:00;60.92;;;34.80;;
53401;SDS011;39295;45.534;20.034;2022-12-13T08:36:26;63.03;;;37.35;;
53401;SDS011;39295;45.534;20.034;2022-12-13T08:38:57;65.78;;;37.20;;
53401;SDS011;39295;45.534;20.034;2022-12-13T08:41:26;60.25;;;33.35;;
53401;SDS011;39295;45.534;20.034;2022-12-13T08:43:52;63.25;;;34.95;;
53401;SDS011;39295;45.534;20.034;2022-12-13T08:46:18;69.57;;;39.25;;
53401;SDS011;39295;45.534;20.034;2022-12-13T08:48:44;61.67;;;35.00;;
53401;SDS011;39295;45.534;20.034;2022-12-13T08:51:11;71.80;;;38.47;;
53401;SDS011;39295;45.534;20.034;2022-12-13T08:53:39;78.28;;;40.83;;
53401;SDS011;39295;45.534;20.034;2022-12-13T08:56:06;106.30;;;49.33;;
53401;SDS011;39295;45.534;20.034;2022-12-13T08:58:34;102.55;;;48.42;;
53401;SDS011;39295;45.534;20.034;2022-12-13T09:01:03;76.68;;;38.33;;
53401;SDS011;39295;45.534;20.034;2022-12-13T09:03:30;60.08;;;30.02;;
53401;SDS011;39295;45.534;20.034;2022-12-13T09:05:56;48.33;;;24.65;;
53401;SDS011;39295;45.534;20.034;2022-12-13T09:08:22;48.03;;;26.15;;
53401;SDS011;39295;45.534;20.034;2022-12-13T09:10:54;64.43;;;29.17;;
53401;SDS011;39295;45.534;20.034;2022-12-13T09:13:21;59.13;;;29.08;;
53401;SDS011;39295;45.534;20.034;2022-12-13T09:15:47;38.83;;;20.73;;
53401;SDS011;39295;45.534;20.034;2022-12-13T09:18:13;37.15;;;19.83;;
53401;SDS011;39295;45.534;20.034;2022-12-13T09:20:39;32.95;;;17.90;;
53401;SDS011;39295;45.534;20.034;2022-12-13T09:23:06;38.80;;;21.00;;
53401;SDS011;39295;45.534;20.034;2022-12-13T09:25:32;42.83;;;23.75;;
53401;SDS011;39295;45.534;20.034;2022-12-13T09:27:58;30.70;;;16.50;;
53401;SDS011;39295;45.534;20.034;2022-12-13T09:30:27;25.55;;;14.45;;
53401;SDS011;39295;45.534;20.034;2022-12-13T09:32:54;19.08;;;11.40;;
53401;SDS011;39295;45.534;20.034;2022-12-13T09:35:20;20.40;;;12.23;;
53401;SDS011;39295;45.534;20.034;2022-12-13T09:37:47;26.27;;;13.23;;
53401;SDS011;39295;45.534;20.034;2022-12-13T09:40:22;27.98;;;15.15;;
53401;SDS011;39295;45.534;20.034;2022-12-13T09:42:51;33.60;;;15.10;;
53401;SDS011;39295;45.534;20.034;2022-12-13T09:45:18;25.45;;;13.63;;
53401;SDS011;39295;45.534;20.034;2022-12-13T09:47:44;24.10;;;14.30;;
53401;SDS011;39295;45.534;20.034;2022-12-13T09:50:12;25.88;;;13.43;;
53401;SDS011;39295;45.534;20.034;2022-12-13T09:52:40;22.38;;;13.52;;
53401;SDS011;39295;45.534;20.034;2022-12-13T09:55:18;40.20;;;18.58;;
53401;SDS011;39295;45.534;20.034;2022-12-13T09:57:45;33.53;;;16.88;;
53401;SDS011;39295;45.534;20.034;2022-12-13T10:00:12;31.48;;;16.67;;
53401;SDS011;39295;45.534;20.034;2022-12-13T10:02:46;27.42;;;15.02;;
53401;SDS011;39295;45.534;20.034;2022-12-13T10:05:25;39.00;;;17.90;;
53401;SDS011;39295;45.534;20.034;2022-12-13T10:10:55;23.65;;;11.82;;
53401;SDS011;39295;45.534;20.034;2022-12-13T10:15:51;18.55;;;10.57;;
53401;SDS011;39295;45.534;20.034;2022-12-13T10:18:40;28.80;;;15.80;;
53401;SDS011;39295;45.534;20.034;2022-12-13T10:23:51;30.20;;;16.98;;
53401;SDS011;39295;45.534;20.034;2022-12-13T10:26:17;27.88;;;15.60;;
53401;SDS011;39295;45.534;20.034;2022-12-13T10:28:43;30.98;;;17.15;;
53401;SDS011;39295;45.534;20.034;2022-12-13T10:31:16;38.22;;;18.45;;
53401;SDS011;39295;45.534;20.034;2022-12-13T10:33:49;35.10;;;17.92;;
53401;SDS011;39295;45.534;20.034;2022-12-13T10:36:34;35.83;;;18.88;;
53401;SDS011;39295;45.534;20.034;2022-12-13T10:39:03;32.33;;;18.02;;
53401;SDS011;39295;45.534;20.034;2022-12-13T10:41:36;24.27;;;14.05;;
53401;SDS011;39295;45.534;20.034;2022-12-13T10:44:06;24.00;;;12.07;;
53401;SDS011;39295;45.534;20.034;2022-12-13T10:46:32;24.60;;;13.25;;
53401;SDS011;39295;45.534;20.034;2022-12-13T10:48:58;36.83;;;19.27;;
53401;SDS011;39295;45.534;20.034;2022-12-13T10:51:25;41.47;;;19.27;;
53401;SDS011;39295;45.534;20.034;2022-12-13T10:53:56;28.83;;;13.52;;
53401;SDS011;39295;45.534;20.034;2022-12-13T10:56:31;41.15;;;20.10;;
53401;SDS011;39295;45.534;20.034;2022-12-13T11:01:42;40.00;;;21.42;;
53401;SDS011;39295;45.534;20.034;2022-12-13T11:06:53;27.05;;;15.77;;
53401;SDS011;39295;45.534;20.034;2022-12-13T11:11:52;36.97;;;18.85;;
53401;SDS011;39295;45.534;20.034;2022-12-13T11:14:19;27.38;;;16.77;;
53401;SDS011;39295;45.534;20.034;2022-12-13T11:16:52;32.05;;;18.05;;
53401;SDS011;39295;45.534;20.034;2022-12-13T11:19:23;39.78;;;19.45;;
53401;SDS011;39295;45.534;20.034;2022-12-13T11:21:50;35.42;;;18.73;;
53401;SDS011;39295;45.534;20.034;2022-12-13T11:24:23;43.05;;;20.52;;
53401;SDS011;39295;45.534;20.034;2022-12-13T11:26:52;44.53;;;23.33;;
53401;SDS011;39295;45.534;20.034;2022-12-13T11:39:55;33.85;;;19.02;;
53401;SDS011;39295;45.534;20.034;2022-12-13T11:42:30;27.23;;;14.85;;
53401;SDS011;39295;45.534;20.034;2022-12-13T11:47:38;31.13;;;16.52;;
53401;SDS011;39295;45.534;20.034;2022-12-13T11:50:14;32.30;;;16.35;;
53401;SDS011;39295;45.534;20.034;2022-12-13T11:52:43;26.95;;;15.13;;
53401;SDS011;39295;45.534;20.034;2022-12-13T11:55:21;26.25;;;15.30;;
53401;SDS011;39295;45.534;20.034;2022-12-13T12:02:48;21.35;;;11.10;;
53401;SDS011;39295;45.534;20.034;2022-12-13T12:05:34;20.48;;;11.65;;
53401;SDS011;39295;45.534;20.034;2022-12-13T12:08:10;19.08;;;10.75;;
53401;SDS011;39295;45.534;20.034;2022-12-13T12:10:40;17.75;;;10.38;;
53401;SDS011;39295;45.534;20.034;2022-12-13T12:13:34;15.30;;;9.73;;
53401;SDS011;39295;45.534;20.034;2022-12-13T12:18:49;33.25;;;15.77;;
53401;SDS011;39295;45.534;20.034;2022-12-13T12:26:09;22.20;;;11.88;;
53401;SDS011;39295;45.534;20.034;2022-12-13T12:38:44;24.90;;;14.48;;
53401;SDS011;39295;45.534;20.034;2022-12-13T12:43:43;22.20;;;12.25;;
53401;SDS011;39295;45.534;20.034;2022-12-13T12:51:34;22.63;;;12.70;;
53401;SDS011;39295;45.534;20.034;2022-12-13T12:56:47;19.20;;;10.75;;
53401;SDS011;39295;45.534;20.034;2022-12-13T12:59:22;17.75;;;10.88;;
53401;SDS011;39295;45.534;20.034;2022-12-13T13:04:29;21.33;;;11.98;;
53401;SDS011;39295;45.534;20.034;2022-12-13T13:07:05;21.85;;;12.23;;
53401;SDS011;39295;45.534;20.034;2022-12-13T13:09:35;32.20;;;17.08;;
53401;SDS011;39295;45.534;20.034;2022-12-13T13:12:03;22.83;;;13.40;;
53401;SDS011;39295;45.534;20.034;2022-12-13T13:16:56;29.05;;;16.15;;
53401;SDS011;39295;45.534;20.034;2022-12-13T13:21:57;35.78;;;22.92;;
53401;SDS011;39295;45.534;20.034;2022-12-13T13:24:24;37.63;;;20.92;;
53401;SDS011;39295;45.534;20.034;2022-12-13T13:34:26;28.80;;;14.52;;
53401;SDS011;39295;45.534;20.034;2022-12-13T13:36:52;29.05;;;15.48;;
53401;SDS011;39295;45.534;20.034;2022-12-13T13:39:36;30.45;;;16.13;;
53401;SDS011;39295;45.534;20.034;2022-12-13T13:47:34;57.28;;;25.95;;
53401;SDS011;39295;45.534;20.034;2022-12-13T13:53:07;182.00;;;97.53;;
53401;SDS011;39295;45.534;20.034;2022-12-13T13:58:20;541.42;;;313.15;;
53401;SDS011;39295;45.534;20.034;2022-12-13T14:29:16;251.90;;;99.28;;
53401;SDS011;39295;45.534;20.034;2022-12-13T14:31:44;334.50;;;134.32;;
53401;SDS011;39295;45.534;20.034;2022-12-13T14:36:56;179.57;;;70.90;;
53401;SDS011;39295;45.534;20.034;2022-12-13T14:39:23;548.08;;;250.90;;
53401;SDS011;39295;45.534;20.034;2022-12-13T14:41:51;363.98;;;144.00;;
53401;SDS011;39295;45.534;20.034;2022-12-13T14:44:27;240.80;;;99.90;;
53401;SDS011;39295;45.534;20.034;2022-12-13T14:46:55;382.63;;;168.52;;
53401;SDS011;39295;45.534;20.034;2022-12-13T14:49:22;525.00;;;258.40;;
53401;SDS011;39295;45.534;20.034;2022-12-13T14:51:49;65.28;;;33.92;;
53401;SDS011;39295;45.534;20.034;2022-12-13T14:54:26;114.78;;;51.63;;
53401;SDS011;39295;45.534;20.034;2022-12-13T14:56:57;180.98;;;79.70;;
53401;SDS011;39295;45.534;20.034;2022-12-13T14:59:23;220.85;;;82.75;;
53401;SDS011;39295;45.534;20.034;2022-12-13T15:01:53;118.78;;;48.53;;
53401;SDS011;39295;45.534;20.034;2022-12-13T15:06:52;299.88;;;105.05;;
53401;SDS011;39295;45.534;20.034;2022-12-13T15:09:20;205.88;;;77.10;;
53401;SDS011;39295;45.534;20.034;2022-12-13T15:11:47;470.38;;;176.45;;
53401;SDS011;39295;45.534;20.034;2022-12-13T15:14:16;220.90;;;85.22;;
53401;SDS011;39295;45.534;20.034;2022-12-13T15:16:50;468.02;;;195.13;;
53401;SDS011;39295;45.534;20.034;2022-12-13T15:19:17;470.60;;;189.15;;
53401;SDS011;39295;45.534;20.034;2022-12-13T15:21:53;370.70;;;144.35;;
53401;SDS011;39295;45.534;20.034;2022-12-13T15:24:24;243.10;;;89.85;;
53401;SDS011;39295;45.534;20.034;2022-12-13T15:26:52;147.40;;;58.55;;
53401;SDS011;39295;45.534;20.034;2022-12-13T15:29:19;454.92;;;168.48;;
53401;SDS011;39295;45.534;20.034;2022-12-13T15:31:47;407.60;;;148.60;;
53401;SDS011;39295;45.534;20.034;2022-12-13T15:36:55;370.40;;;125.00;;
53401;SDS011;39295;45.534;20.034;2022-12-13T15:39:29;421.50;;;142.77;;
53401;SDS011;39295;45.534;20.034;2022-12-13T15:41:55;325.42;;;109.72;;
53401;SDS011;39295;45.534;20.034;2022-12-13T15:44:25;510.65;;;193.27;;
53401;SDS011;39295;45.534;20.034;2022-12-13T15:46:52;563.00;;;237.65;;
53401;SDS011;39295;45.534;20.034;2022-12-13T15:51:56;555.70;;;232.25;;
53401;SDS011;39295;45.534;20.034;2022-12-13T15:54:25;395.33;;;156.20;;
53401;SDS011;39295;45.534;20.034;2022-12-13T15:57:10;154.57;;;65.45;;
53401;SDS011;39295;45.534;20.034;2022-12-13T15:59:42;322.55;;;123.57;;
53401;SDS011;39295;45.534;20.034;2022-12-13T16:02:29;262.27;;;98.00;;
53401;SDS011;39295;45.534;20.034;2022-12-13T16:05:04;264.65;;;86.25;;
53401;SDS011;39295;45.534;20.034;2022-12-13T16:07:34;262.75;;;84.20;;
53401;SDS011;39295;45.534;20.034;2022-12-13T16:10:04;170.48;;;58.78;;
53401;SDS011;39295;45.534;20.034;2022-12-13T16:12:52;110.78;;;46.05;;
53401;SDS011;39295;45.534;20.034;2022-12-13T16:15:25;316.63;;;101.60;;
53401;SDS011;39295;45.534;20.034;2022-12-13T16:17:53;102.93;;;45.40;;
53401;SDS011;39295;45.534;20.034;2022-12-13T16:20:24;375.40;;;115.78;;
53401;SDS011;39295;45.534;20.034;2022-12-13T16:22:52;199.23;;;72.57;;
53401;SDS011;39295;45.534;20.034;2022-12-13T16:25:18;150.57;;;59.80;;
53401;SDS011;39295;45.534;20.034;2022-12-13T16:27:44;264.08;;;94.47;;
53401;SDS011;39295;45.534;20.034;2022-12-13T16:33:06;384.00;;;125.35;;
53401;SDS011;39295;45.534;20.034;2022-12-13T16:35:35;169.90;;;62.90;;
53401;SDS011;39295;45.534;20.034;2022-12-13T16:38:10;90.32;;;43.70;;
53401;SDS011;39295;45.534;20.034;2022-12-13T16:40:40;139.10;;;58.10;;
53401;SDS011;39295;45.534;20.034;2022-12-13T16:43:06;133.07;;;53.95;;
53401;SDS011;39295;45.534;20.034;2022-12-13T16:45:40;158.20;;;60.05;;
53401;SDS011;39295;45.534;20.034;2022-12-13T16:48:10;156.27;;;60.13;;
53401;SDS011;39295;45.534;20.034;2022-12-13T16:50:43;121.72;;;48.50;;
53401;SDS011;39295;45.534;20.034;2022-12-13T16:53:13;164.30;;;60.38;;
53401;SDS011;39295;45.534;20.034;2022-12-13T16:55:48;234.32;;;87.15;;
53401;SDS011;39295;45.534;20.034;2022-12-13T16:58:20;162.23;;;65.32;;
53401;SDS011;39295;45.534;20.034;2022-12-13T17:00:47;139.10;;;61.28;;
53401;SDS011;39295;45.534;20.034;2022-12-13T17:03:13;94.78;;;43.55;;
53401;SDS011;39295;45.534;20.034;2022-12-13T17:05:42;144.23;;;62.97;;
53401;SDS011;39295;45.534;20.034;2022-12-13T17:08:12;122.55;;;56.28;;
53401;SDS011;39295;45.534;20.034;2022-12-13T17:10:46;177.05;;;77.93;;
53401;SDS011;39295;45.534;20.034;2022-12-13T17:13:12;111.43;;;50.35;;
53401;SDS011;39295;45.534;20.034;2022-12-13T17:15:38;121.70;;;55.80;;
53401;SDS011;39295;45.534;20.034;2022-12-13T17:18:05;161.38;;;71.47;;
53401;SDS011;39295;45.534;20.034;2022-12-13T17:20:31;182.57;;;80.85;;
53401;SDS011;39295;45.534;20.034;2022-12-13T17:22:57;108.40;;;53.08;;
53401;SDS011;39295;45.534;20.034;2022-12-13T17:25:23;135.85;;;63.17;;
53401;SDS011;39295;45.534;20.034;2022-12-13T17:27:49;84.57;;;41.03;;
53401;SDS011;39295;45.534;20.034;2022-12-13T17:30:16;81.07;;;40.40;;
53401;SDS011;39295;45.534;20.034;2022-12-13T17:32:45;91.68;;;43.22;;
53401;SDS011;39295;45.534;20.034;2022-12-13T17:35:23;93.47;;;42.63;;
53401;SDS011;39295;45.534;20.034;2022-12-13T17:37:51;151.43;;;63.70;;
53401;SDS011;39295;45.534;20.034;2022-12-13T17:40:18;204.93;;;89.82;;
53401;SDS011;39295;45.534;20.034;2022-12-13T17:42:55;106.05;;;49.80;;
53401;SDS011;39295;45.534;20.034;2022-12-13T17:45:22;217.70;;;95.38;;
53401;SDS011;39295;45.534;20.034;2022-12-13T17:47:48;268.65;;;104.53;;
53401;SDS011;39295;45.534;20.034;2022-12-13T17:50:16;134.88;;;59.40;;
53401;SDS011;39295;45.534;20.034;2022-12-13T17:52:45;262.73;;;101.75;;
53401;SDS011;39295;45.534;20.034;2022-12-13T17:55:11;181.20;;;71.00;;
53401;SDS011;39295;45.534;20.034;2022-12-13T17:57:42;219.55;;;81.70;;
53401;SDS011;39295;45.534;20.034;2022-12-13T18:00:09;106.97;;;47.00;;
53401;SDS011;39295;45.534;20.034;2022-12-13T18:02:38;103.63;;;47.58;;
53401;SDS011;39295;45.534;20.034;2022-12-13T18:05:04;140.90;;;58.88;;
53401;SDS011;39295;45.534;20.034;2022-12-13T18:07:31;185.35;;;70.30;;
53401;SDS011;39295;45.534;20.034;2022-12-13T18:10:00;140.32;;;53.70;;
53401;SDS011;39295;45.534;20.034;2022-12-13T18:12:26;190.43;;;67.72;;
53401;SDS011;39295;45.534;20.034;2022-12-13T18:14:52;169.25;;;61.75;;
53401;SDS011;39295;45.534;20.034;2022-12-13T18:17:22;166.98;;;62.70;;
53401;SDS011;39295;45.534;20.034;2022-12-13T18:19:49;256.05;;;96.57;;
53401;SDS011;39295;45.534;20.034;2022-12-13T18:22:19;166.75;;;65.65;;
53401;SDS011;39295;45.534;20.034;2022-12-13T18:24:45;120.63;;;53.25;;
53401;SDS011;39295;45.534;20.034;2022-12-13T18:27:13;143.70;;;62.25;;
53401;SDS011;39295;45.534;20.034;2022-12-13T18:29:39;73.05;;;37.03;;
53401;SDS011;39295;45.534;20.034;2022-12-13T18:32:16;125.72;;;57.33;;
53401;SDS011;39295;45.534;20.034;2022-12-13T18:34:44;74.93;;;36.47;;
53401;SDS011;39295;45.534;20.034;2022-12-13T18:37:15;88.20;;;42.95;;
53401;SDS011;39295;45.534;20.034;2022-12-13T18:39:41;68.65;;;37.10;;
53401;SDS011;39295;45.534;20.034;2022-12-13T18:42:08;53.60;;;28.65;;
53401;SDS011;39295;45.534;20.034;2022-12-13T18:44:34;63.92;;;31.85;;
53401;SDS011;39295;45.534;20.034;2022-12-13T18:47:03;109.72;;;38.58;;
53401;SDS011;39295;45.534;20.034;2022-12-13T18:49:29;58.65;;;29.52;;
53401;SDS011;39295;45.534;20.034;2022-12-13T18:51:55;77.10;;;40.38;;
53401;SDS011;39295;45.534;20.034;2022-12-13T18:54:21;84.50;;;40.60;;
53401;SDS011;39295;45.534;20.034;2022-12-13T18:56:50;67.15;;;35.53;;
53401;SDS011;39295;45.534;20.034;2022-12-13T18:59:19;72.50;;;36.45;;
53401;SDS011;39295;45.534;20.034;2022-12-13T19:01:47;62.47;;;33.72;;
53401;SDS011;39295;45.534;20.034;2022-12-13T19:04:13;55.58;;;29.95;;
53401;SDS011;39295;45.534;20.034;2022-12-13T19:06:42;54.40;;;29.92;;
53401;SDS011;39295;45.534;20.034;2022-12-13T19:09:11;49.75;;;27.92;;
53401;SDS011;39295;45.534;20.034;2022-12-13T19:11:37;54.40;;;28.92;;
53401;SDS011;39295;45.534;20.034;2022-12-13T19:14:06;56.97;;;30.35;;
53401;SDS011;39295;45.534;20.034;2022-12-13T19:16:32;50.03;;;28.10;;
53401;SDS011;39295;45.534;20.034;2022-12-13T19:18:58;52.63;;;28.58;;
53401;SDS011;39295;45.534;20.034;2022-12-13T19:21:24;55.70;;;31.13;;
53401;SDS011;39295;45.534;20.034;2022-12-13T19:23:51;100.60;;;47.35;;
53401;SDS011;39295;45.534;20.034;2022-12-13T19:26:18;69.65;;;38.50;;
53401;SDS011;39295;45.534;20.034;2022-12-13T19:28:45;65.95;;;35.63;;
53401;SDS011;39295;45.534;20.034;2022-12-13T19:31:11;54.35;;;29.70;;
53401;SDS011;39295;45.534;20.034;2022-12-13T19:33:38;53.10;;;28.30;;
53401;SDS011;39295;45.534;20.034;2022-12-13T19:36:04;58.10;;;31.58;;
53401;SDS011;39295;45.534;20.034;2022-12-13T19:38:30;52.40;;;29.17;;
53401;SDS011;39295;45.534;20.034;2022-12-13T19:40:57;57.47;;;32.80;;
53401;SDS011;39295;45.534;20.034;2022-12-13T19:43:23;51.53;;;28.90;;
53401;SDS011;39295;45.534;20.034;2022-12-13T19:45:49;59.88;;;31.38;;
53401;SDS011;39295;45.534;20.034;2022-12-13T19:48:15;66.45;;;34.20;;
53401;SDS011;39295;45.534;20.034;2022-12-13T19:50:41;98.43;;;44.63;;
53401;SDS011;39295;45.534;20.034;2022-12-13T19:53:08;67.22;;;33.75;;
53401;SDS011;39295;45.534;20.034;2022-12-13T19:55:34;82.32;;;38.92;;
53401;SDS011;39295;45.534;20.034;2022-12-13T19:58:01;69.35;;;34.97;;
53401;SDS011;39295;45.534;20.034;2022-12-13T20:00:27;75.75;;;35.25;;
53401;SDS011;39295;45.534;20.034;2022-12-13T20:02:53;101.50;;;40.00;;
53401;SDS011;39295;45.534;20.034;2022-12-13T20:05:19;77.93;;;34.13;;
53401;SDS011;39295;45.534;20.034;2022-12-13T20:07:45;57.38;;;27.70;;
53401;SDS011;39295;45.534;20.034;2022-12-13T20:10:11;47.28;;;24.88;;
53401;SDS011;39295;45.534;20.034;2022-12-13T20:15:45;44.83;;;25.42;;
53401;SDS011;39295;45.534;20.034;2022-12-13T20:18:11;38.80;;;23.20;;
53401;SDS011;39295;45.534;20.034;2022-12-13T20:20:37;38.20;;;21.92;;
53401;SDS011;39295;45.534;20.034;2022-12-13T20:23:03;45.00;;;24.02;;
53401;SDS011;39295;45.534;20.034;2022-12-13T20:25:29;35.83;;;21.73;;
53401;SDS011;39295;45.534;20.034;2022-12-13T20:27:55;37.97;;;21.80;;
53401;SDS011;39295;45.534;20.034;2022-12-13T20:30:21;38.00;;;21.33;;
53401;SDS011;39295;45.534;20.034;2022-12-13T20:32:48;38.10;;;22.52;;
53401;SDS011;39295;45.534;20.034;2022-12-13T20:35:14;39.13;;;22.42;;
53401;SDS011;39295;45.534;20.034;2022-12-13T20:37:40;35.78;;;21.45;;
53401;SDS011;39295;45.534;20.034;2022-12-13T20:40:07;35.35;;;20.92;;
53401;SDS011;39295;45.534;20.034;2022-12-13T20:42:33;33.13;;;20.05;;
53401;SDS011;39295;45.534;20.034;2022-12-13T20:44:59;32.35;;;18.75;;